You are not logged in, Click here to log in
Francisco de Sá Carneiro Airport / LPPR Porto
ICAO: LPPR Country: Porto
Latitude: 41.2481 Longitude: -8.68139
Total Arrivals: 2 Total Departures: 2
Latest Arrival: U23773 (LFPG-LPPR)Arthur. Kung Latest Departure: U27585 (LPPR-LPMA)Arthur. Kung
Scenery: http://en.wikipedia.org/wiki/Ota_Airport
METAR : LPPR 240630Z 17014KT 9999 FEW020 BKN040 15/13 Q1023

Francisco de Sá Carneiro Airport

You are accessing this site from IP address 34.201.9.19. Virtual Airline. CMS by phpVMS.Website designed by Zumeweb and edited by Theo Bearman.
There is 0 User(s) Online: | and 21 Guest(s) Online.
All information on this site is for fight simulation purposes only. This site is for flight logging for pilots of Virtual Airline&模擬飛行論壇 FlySim only.